Time;durP1;ratioP1;P1;durP2;ratioP2;P2;SDS_P1;SDS_P2;PMS_P1;PMS_P2;Temp;Humidity;BMP_temperature;BMP_pressure;BME280_temperature;BME280_humidity;BME280_pressure;Samples;Min_cycle;Max_cycle;Signal;HPM_P1;HPM_P2
2024/01/10 00:03:55;;;;;;;227.80;78.40;;;;;;;-10.20;100.00;102525.92;218261;1287;140833;-79
2024/01/10 00:08:56;;;;;;;251.30;84.40;;;;;;;-10.28;100.00;102526.27;218767;1287;140760;-79
2024/01/10 00:13:59;;;;;;;243.90;82.20;;;;;;;-10.31;100.00;102521.52;218416;1287;141038;-80
2024/01/10 00:19:00;;;;;;;241.80;88.20;;;;;;;-10.36;100.00;102516.12;218824;1287;139955;-80
2024/01/10 00:24:01;;;;;;;264.10;90.90;;;;;;;-10.37;100.00;102508.41;218301;1287;141347;-79
2024/01/10 00:29:01;;;;;;;271.70;91.70;;;;;;;-10.38;100.00;102503.27;218719;1288;140143;-79
2024/01/10 00:34:02;;;;;;;289.40;94.40;;;;;;;-10.42;100.00;102499.73;218312;1286;141624;-79
2024/01/10 00:39:03;;;;;;;287.10;95.90;;;;;;;-10.40;100.00;102496.38;218697;1286;140110;-80
2024/01/10 00:44:04;;;;;;;310.10;101.50;;;;;;;-10.38;100.00;102494.75;218190;1286;140999;-79
2024/01/10 00:49:04;;;;;;;343.80;109.60;;;;;;;-10.39;100.00;102491.85;218815;1286;140292;-79
2024/01/10 00:54:05;;;;;;;273.60;91.70;;;;;;;-10.39;100.00;102492.05;218287;1287;141238;-79
2024/01/10 00:59:05;;;;;;;296.00;97.90;;;;;;;-10.41;100.00;102491.49;218807;1287;140533;-79
2024/01/10 01:04:05;;;;;;;264.20;93.70;;;;;;;-10.40;100.00;102490.02;218320;1287;140808;-79
2024/01/10 01:09:06;;;;;;;256.90;94.90;;;;;;;-10.39;100.00;102497.51;218809;1287;141038;-79
2024/01/10 01:14:07;;;;;;;235.50;89.00;;;;;;;-10.39;100.00;102497.04;218408;1286;140859;-79
2024/01/10 01:19:07;;;;;;;239.00;87.70;;;;;;;-10.40;100.00;102504.33;218666;1287;140164;-79
2024/01/10 01:24:08;;;;;;;233.20;86.20;;;;;;;-10.43;100.00;102512.11;218302;1287;141061;-79
2024/01/10 01:29:08;;;;;;;219.50;86.00;;;;;;;-10.41;100.00;102514.46;218548;1287;142300;-79
2024/01/10 01:34:09;;;;;;;241.30;86.00;;;;;;;-10.44;100.00;102512.07;218263;1286;140934;-79
2024/01/10 01:39:09;;;;;;;244.70;81.90;;;;;;;-10.46;100.00;102512.91;218831;1287;140163;-79
2024/01/10 01:44:10;;;;;;;202.00;76.20;;;;;;;-10.51;100.00;102506.96;218245;1287;142217;-79
2024/01/10 01:49:11;;;;;;;206.30;76.80;;;;;;;-10.54;100.00;102505.27;218859;1287;140137;-79
2024/01/10 01:54:11;;;;;;;186.10;69.30;;;;;;;-10.56;100.00;102505.96;218243;1286;140818;-79
2024/01/10 01:59:12;;;;;;;181.10;65.90;;;;;;;-10.55;100.00;102501.09;218723;1286;140060;-79
2024/01/10 02:04:13;;;;;;;166.90;60.20;;;;;;;-10.52;100.00;102500.89;218282;1287;140958;-80
2024/01/10 02:09:14;;;;;;;158.90;60.10;;;;;;;-10.49;100.00;102487.00;218840;1287;141034;-79
2024/01/10 02:14:15;;;;;;;167.30;59.60;;;;;;;-10.46;100.00;102478.19;218343;1287;141139;-79
2024/01/10 02:19:20;;;;;;;145.70;56.00;;;;;;;-10.44;100.00;102473.42;218702;1287;140676;-79
2024/01/10 02:24:21;;;;;;;143.10;57.80;;;;;;;-10.46;100.00;102472.05;218062;1287;140525;-79
2024/01/10 02:29:23;;;;;;;152.80;61.20;;;;;;;-10.47;100.00;102472.24;218789;1287;141876;-79
2024/01/10 02:34:25;;;;;;;163.20;57.40;;;;;;;-10.52;100.00;102460.77;218267;1287;141861;-79
2024/01/10 02:39:25;;;;;;;150.40;55.20;;;;;;;-10.57;100.00;102455.11;218662;1286;140718;-79
2024/01/10 02:44:27;;;;;;;152.10;59.50;;;;;;;-10.59;100.00;102449.07;218439;1286;141623;-79
2024/01/10 02:49:28;;;;;;;143.70;55.40;;;;;;;-10.57;100.00;102451.66;218683;1287;139886;-79
2024/01/10 02:54:29;;;;;;;139.80;54.50;;;;;;;-10.62;100.00;102455.67;218321;1286;141238;-79
2024/01/10 02:59:29;;;;;;;145.00;56.20;;;;;;;-10.61;100.00;102452.87;218635;1287;140629;-79
2024/01/10 03:04:30;;;;;;;137.00;49.40;;;;;;;-10.61;100.00;102450.68;218088;1287;141587;-79
2024/01/10 03:09:30;;;;;;;131.20;52.80;;;;;;;-10.60;100.00;102451.39;218752;1286;140371;-79
2024/01/10 03:14:32;;;;;;;153.00;54.40;;;;;;;-10.56;100.00;102452.29;218442;1287;144088;-79
2024/01/10 03:19:33;;;;;;;129.50;52.20;;;;;;;-10.55;100.00;102446.13;218822;1287;140331;-79
2024/01/10 03:24:33;;;;;;;142.10;50.20;;;;;;;-10.64;100.00;102445.02;218286;1286;140395;-80
2024/01/10 03:29:35;;;;;;;132.10;49.50;;;;;;;-10.63;100.00;102441.46;218838;1287;141158;-80
2024/01/10 03:34:35;;;;;;;152.00;54.20;;;;;;;-10.67;100.00;102442.27;218261;1287;141304;-80
2024/01/10 03:39:35;;;;;;;139.20;54.30;;;;;;;-10.68;100.00;102438.42;218804;1287;140616;-80
2024/01/10 03:44:36;;;;;;;137.10;52.50;;;;;;;-10.66;100.00;102439.52;218389;1287;140770;-80
2024/01/10 03:49:37;;;;;;;132.20;49.20;;;;;;;-10.64;100.00;102434.33;218638;1287;140522;-79
2024/01/10 03:54:38;;;;;;;145.80;56.60;;;;;;;-10.63;100.00;102445.39;218352;1286;141515;-79
2024/01/10 03:59:39;;;;;;;133.00;53.40;;;;;;;-10.62;100.00;102449.98;218826;1286;140089;-79
2024/01/10 04:04:40;;;;;;;151.70;54.40;;;;;;;-10.66;100.00;102448.39;218041;1287;143024;-79
2024/01/10 04:09:40;;;;;;;157.50;56.00;;;;;;;-10.66;100.00;102443.04;218863;1286;140218;-79
2024/01/10 04:14:41;;;;;;;127.60;51.10;;;;;;;-10.71;100.00;102438.96;218311;1286;140768;-79
2024/01/10 04:19:41;;;;;;;134.20;52.60;;;;;;;-10.77;100.00;102439.05;218921;1287;96293;-80
2024/01/10 04:24:41;;;;;;;154.40;61.40;;;;;;;-10.78;100.00;102434.15;218258;1287;140792;-80
2024/01/10 04:29:42;;;;;;;157.70;53.70;;;;;;;-10.77;100.00;102428.15;218643;1286;140486;-80
2024/01/10 04:34:43;;;;;;;139.00;50.30;;;;;;;-10.80;100.00;102427.90;218280;1286;142191;-80
2024/01/10 04:39:43;;;;;;;147.40;57.20;;;;;;;-10.77;100.00;102427.98;218804;1287;140613;-79
2024/01/10 04:44:44;;;;;;;151.00;55.70;;;;;;;-10.74;100.00;102424.03;218284;1287;140822;-80
2024/01/10 04:49:44;;;;;;;163.80;60.30;;;;;;;-10.76;100.00;102420.02;218844;1287;105832;-80
2024/01/10 04:54:45;;;;;;;151.80;57.10;;;;;;;-10.78;100.00;102415.33;218310;1287;140748;-80
2024/01/10 04:59:45;;;;;;;137.60;58.90;;;;;;;-10.80;100.00;102408.98;218875;1286;140303;-80
2024/01/10 05:04:46;;;;;;;168.80;68.60;;;;;;;-10.82;100.00;102410.67;218355;1286;141205;-80
2024/01/10 05:09:46;;;;;;;179.40;69.30;;;;;;;-10.79;100.00;102405.05;218752;1286;140880;-80
2024/01/10 05:14:46;;;;;;;165.10;63.40;;;;;;;-10.76;100.00;102405.82;218433;1286;142207;-80
2024/01/10 05:19:47;;;;;;;173.10;65.10;;;;;;;-10.81;100.00;102400.84;218622;1286;140846;-80
2024/01/10 05:24:47;;;;;;;165.10;67.20;;;;;;;-10.85;100.00;102402.24;218604;1287;140824;-80
2024/01/10 05:29:48;;;;;;;160.60;67.20;;;;;;;-10.83;100.00;102403.08;218293;1287;140130;-80
2024/01/10 05:34:49;;;;;;;168.20;67.30;;;;;;;-10.80;100.00;102403.33;218660;1287;140560;-80
2024/01/10 05:39:50;;;;;;;159.70;64.10;;;;;;;-10.77;100.00;102398.36;218342;1286;140810;-80
2024/01/10 05:44:50;;;;;;;157.70;65.70;;;;;;;-10.82;100.00;102408.55;218628;1286;141057;-80
2024/01/10 05:49:52;;;;;;;153.10;58.50;;;;;;;-10.85;100.00;102408.83;218600;1287;142045;-80
2024/01/10 05:54:53;;;;;;;147.40;60.90;;;;;;;-10.87;100.00;102403.54;218458;1288;140141;-80
2024/01/10 05:59:56;;;;;;;125.90;51.30;;;;;;;-10.84;100.00;102402.92;218237;1287;141120;-80
2024/01/10 06:04:57;;;;;;;134.50;52.00;;;;;;;-10.78;100.00;102389.44;218674;1287;140159;-80
2024/01/10 06:09:57;;;;;;;133.70;52.80;;;;;;;-10.73;100.00;102386.52;218128;1287;141686;-80
2024/01/10 06:14:57;;;;;;;118.10;48.10;;;;;;;-10.67;100.00;102380.65;218744;1287;140133;-80
2024/01/10 06:19:59;;;;;;;128.80;51.60;;;;;;;-10.65;100.00;102376.42;218238;1287;143080;-80
2024/01/10 06:25:00;;;;;;;130.10;49.00;;;;;;;-10.62;100.00;102381.89;218717;1287;139919;-79
2024/01/10 06:30:00;;;;;;;125.10;50.70;;;;;;;-10.65;100.00;102383.91;218233;1287;142782;-80
2024/01/10 06:35:01;;;;;;;125.10;54.10;;;;;;;-10.68;100.00;102388.21;218713;1286;139987;-80
2024/01/10 06:40:03;;;;;;;164.70;61.10;;;;;;;-10.70;100.00;102387.34;218064;1287;141069;-81
2024/01/10 06:45:07;;;;;;;162.10;59.60;;;;;;;-10.67;100.00;102380.74;218652;1287;140181;-80
2024/01/10 06:50:08;;;;;;;154.70;58.50;;;;;;;-10.62;100.00;102382.66;218326;1287;141083;-81
2024/01/10 06:55:09;;;;;;;146.10;55.20;;;;;;;-10.64;100.00;102383.39;218612;1287;140601;-81
2024/01/10 07:00:10;;;;;;;170.00;60.60;;;;;;;-10.68;100.00;102383.25;218022;1287;142032;-81
2024/01/10 07:05:11;;;;;;;182.40;68.90;;;;;;;-10.70;100.00;102375.80;218406;1287;140504;-81
2024/01/10 07:10:11;;;;;;;166.70;68.30;;;;;;;-10.69;100.00;102379.12;218146;1287;141645;-81
2024/01/10 07:15:12;;;;;;;189.90;76.30;;;;;;;-10.65;100.00;102367.62;218560;1287;140906;-81
2024/01/10 07:20:12;;;;;;;187.60;75.70;;;;;;;-10.64;100.00;102373.11;218001;1287;141876;-81
2024/01/10 07:25:16;;;;;;;190.30;74.10;;;;;;;-10.64;100.00;102367.96;218456;1286;140807;-81
2024/01/10 07:30:16;;;;;;;182.70;68.90;;;;;;;-10.62;100.00;102367.77;218122;1288;140949;-81
2024/01/10 07:35:17;;;;;;;173.60;70.70;;;;;;;-10.62;100.00;102369.52;218697;1286;140378;-81
2024/01/10 07:40:17;;;;;;;188.10;70.10;;;;;;;-10.58;100.00;102369.26;218257;1287;141355;-81
2024/01/10 07:45:18;;;;;;;189.50;71.00;;;;;;;-10.54;100.00;102370.66;218778;1287;140355;-81
2024/01/10 07:50:19;;;;;;;169.50;67.60;;;;;;;-10.50;100.00;102368.23;218267;1287;141355;-81
2024/01/10 07:55:20;;;;;;;160.90;68.40;;;;;;;-10.43;100.00;102373.16;218805;1287;140381;-81
2024/01/10 08:00:22;;;;;;;156.70;64.20;;;;;;;-10.35;100.00;102378.88;217974;1286;142444;-81
2024/01/10 08:05:23;;;;;;;185.30;73.80;;;;;;;-10.27;100.00;102384.38;218740;1287;140631;-80
2024/01/10 08:10:24;;;;;;;188.80;72.30;;;;;;;-10.18;100.00;102391.20;218029;1287;142119;-80
2024/01/10 08:15:24;;;;;;;165.40;63.20;;;;;;;-10.08;100.00;102395.90;218593;1287;142004;-81
2024/01/10 08:20:25;;;;;;;146.50;59.20;;;;;;;-9.95;100.00;102396.16;218320;1287;141028;-81
2024/01/10 08:25:25;;;;;;;142.60;56.20;;;;;;;-9.79;100.00;102403.84;218552;1287;141082;-81
2024/01/10 08:30:26;;;;;;;142.10;53.40;;;;;;;-9.59;100.00;102403.34;218151;1288;143820;-82
2024/01/10 08:35:27;;;;;;;120.70;47.80;;;;;;;-9.40;100.00;102407.17;218710;1287;140032;-81
2024/01/10 08:40:27;;;;;;;130.60;52.10;;;;;;;-9.19;100.00;102407.86;218087;1288;141460;-82
2024/01/10 08:45:28;;;;;;;131.30;53.70;;;;;;;-8.96;100.00;102406.05;218771;1287;140215;-82
2024/01/10 08:50:31;;;;;;;134.10;54.50;;;;;;;-8.63;100.00;102405.54;218247;1288;141063;-81
2024/01/10 08:55:32;;;;;;;119.20;52.20;;;;;;;-8.25;100.00;102403.66;218732;1287;139736;-81
2024/01/10 09:00:35;;;;;;;199.10;85.10;;;;;;;-7.97;100.00;102400.99;218019;1288;141358;-82
2024/01/10 09:05:35;;;;;;;273.10;109.30;;;;;;;-7.74;100.00;102398.39;218679;1287;140199;-82
2024/01/10 09:10:38;;;;;;;244.60;98.60;;;;;;;-7.56;100.00;102397.28;218265;1288;141351;-82
2024/01/10 09:15:38;;;;;;;257.30;104.40;;;;;;;-7.40;100.00;102406.65;218727;1287;140708;-82
2024/01/10 09:20:39;;;;;;;228.20;98.90;;;;;;;-7.26;100.00;102406.96;218246;1287;141620;-82
2024/01/10 09:25:40;;;;;;;232.40;95.60;;;;;;;-7.09;100.00;102402.24;218664;1290;108294;-82
2024/01/10 09:30:41;;;;;;;221.30;96.70;;;;;;;-6.84;100.00;102401.73;218148;1287;140910;-83
2024/01/10 09:35:42;;;;;;;231.80;96.70;;;;;;;-6.55;100.00;102403.19;218775;1287;140100;-80
2024/01/10 09:40:42;;;;;;;224.80;96.00;;;;;;;-6.28;100.00;102391.33;218177;1286;141553;-83
2024/01/10 09:45:46;;;;;;;253.40;98.70;;;;;;;-6.03;100.00;102390.89;218253;1287;387634;-81
2024/01/10 09:50:50;;;;;;;232.30;99.20;;;;;;;-5.87;100.00;102385.67;218103;1290;140849;-81
2024/01/10 09:55:50;;;;;;;174.80;77.20;;;;;;;-5.79;100.00;102379.09;218881;1287;96097;-81
2024/01/10 10:00:51;;;;;;;158.90;65.00;;;;;;;-5.73;100.00;102386.98;218127;1288;141510;-81
2024/01/10 10:05:51;;;;;;;164.80;68.80;;;;;;;-5.67;100.00;102385.30;218668;1289;140682;-81
2024/01/10 10:10:52;;;;;;;141.90;60.10;;;;;;;-5.60;100.00;102377.95;218093;1288;141416;-81
2024/01/10 10:16:00;;;;;;;132.30;53.00;;;;;;;-5.54;100.00;102382.02;218742;1288;139874;-81
2024/01/10 10:21:11;;;;;;;133.50;56.40;;;;;;;-5.48;100.00;102386.02;218098;1288;141271;-81
2024/01/10 10:26:19;;;;;;;141.10;58.00;;;;;;;-5.42;100.00;102383.16;218785;1288;111618;-82
2024/01/10 10:31:20;;;;;;;128.80;55.10;;;;;;;-5.36;100.00;102376.89;217921;1288;141714;-82
2024/01/10 10:36:21;;;;;;;123.20;52.60;;;;;;;-5.33;100.00;102367.94;218751;1286;140384;-81
2024/01/10 10:41:24;;;;;;;125.40;53.90;;;;;;;-5.30;100.00;102363.20;218281;1288;140799;-82
2024/01/10 10:46:27;;;;;;;137.70;58.50;;;;;;;-5.24;100.00;102358.98;218735;1286;140721;-82
2024/01/10 10:51:33;;;;;;;136.90;58.00;;;;;;;-5.16;100.00;102358.18;218240;1288;142183;-82
2024/01/10 10:56:35;;;;;;;146.40;59.20;;;;;;;-5.09;100.00;102351.11;218790;1286;96097;-81
2024/01/10 11:01:36;;;;;;;149.90;60.70;;;;;;;-5.04;100.00;102345.25;218237;1287;141827;-81
2024/01/10 11:06:37;;;;;;;149.80;64.40;;;;;;;-4.99;100.00;102343.50;218491;1286;140092;-81
2024/01/10 11:11:47;;;;;;;156.10;61.70;;;;;;;-4.95;100.00;102344.41;218175;1288;141287;-82
2024/01/10 11:17:27;;;;;;;159.50;65.20;;;;;;;-4.90;100.00;102342.50;218667;1287;140498;-82
2024/01/10 11:23:26;;;;;;;139.20;58.20;;;;;;;-4.83;100.00;102337.64;217942;1288;141954;-82
2024/01/10 11:28:27;;;;;;;156.10;62.00;;;;;;;-4.76;100.00;102332.29;218438;1287;140535;-82
2024/01/10 11:33:33;;;;;;;139.10;55.80;;;;;;;-4.66;100.00;102329.11;218056;1288;140255;-83
2024/01/10 11:38:34;;;;;;;144.80;62.00;;;;;;;-4.59;100.00;102312.91;218804;1289;96088;-82
2024/01/10 11:43:34;;;;;;;144.00;57.30;;;;;;;-4.51;100.00;102310.73;218229;1287;140581;-83
2024/01/10 11:48:37;;;;;;;126.50;58.30;;;;;;;-4.45;100.00;102310.23;218595;1288;140069;-82
2024/01/10 11:53:50;;;;;;;161.60;65.70;;;;;;;-4.38;100.00;102310.20;218046;1286;141173;-82
2024/01/10 11:59:08;;;;;;;167.30;66.50;;;;;;;-4.30;100.00;102301.09;218571;1288;140516;-82
2024/01/10 12:04:09;;;;;;;175.30;75.20;;;;;;;-4.24;100.00;102301.71;218209;1288;140947;-83
2024/01/10 12:09:09;;;;;;;182.50;77.00;;;;;;;-4.19;100.00;102293.48;218595;1286;140638;-82
2024/01/10 12:14:10;;;;;;;181.10;73.20;;;;;;;-4.11;100.00;102290.11;218329;1289;140955;-83
2024/01/10 12:19:10;;;;;;;177.40;76.30;;;;;;;-4.02;100.00;102281.39;218722;1287;141237;-82
2024/01/10 12:24:11;;;;;;;175.20;72.30;;;;;;;-3.96;100.00;102280.19;218184;1287;141233;-83
2024/01/10 12:29:11;;;;;;;186.40;74.00;;;;;;;-3.92;100.00;102275.69;218780;1287;140161;-83
2024/01/10 12:34:12;;;;;;;168.00;70.40;;;;;;;-3.89;100.00;102271.73;218095;1289;140833;-83
2024/01/10 12:39:13;;;;;;;173.80;74.90;;;;;;;-3.85;100.00;102266.86;218625;1287;140750;-83
2024/01/10 12:44:14;;;;;;;163.70;71.10;;;;;;;-3.81;100.00;102264.09;218327;1288;141682;-83
2024/01/10 12:49:15;;;;;;;165.10;66.00;;;;;;;-3.79;100.00;102261.60;218825;1287;139856;-83
2024/01/10 12:54:17;;;;;;;139.20;60.90;;;;;;;-3.80;100.00;102255.58;218252;1287;141122;-83
2024/01/10 12:59:17;;;;;;;129.60;55.80;;;;;;;-3.78;99.86;102253.14;218779;1288;140528;-83
2024/01/10 13:04:18;;;;;;;134.90;53.30;;;;;;;-3.78;99.03;102240.23;218247;1287;140572;-84
2024/01/10 13:09:18;;;;;;;127.30;53.20;;;;;;;-3.76;99.02;102236.80;218746;1288;139766;-84
2024/01/10 13:14:19;;;;;;;132.00;55.00;;;;;;;-3.76;98.90;102236.59;218328;1286;140468;-82
2024/01/10 13:19:20;;;;;;;129.50;55.40;;;;;;;-3.76;98.71;102242.08;218751;1287;139746;-84
2024/01/10 13:24:21;;;;;;;138.10;55.50;;;;;;;-3.77;98.54;102232.91;218256;1288;140614;-84
2024/01/10 13:29:21;;;;;;;114.50;48.70;;;;;;;-3.78;98.40;102231.89;218834;1287;140768;-83
2024/01/10 13:34:22;;;;;;;131.00;53.60;;;;;;;-3.77;97.84;102224.48;218224;1286;140866;-84
2024/01/10 13:39:22;;;;;;;115.20;50.80;;;;;;;-3.77;98.20;102217.75;218590;1286;141379;-83
2024/01/10 13:44:22;;;;;;;121.60;52.00;;;;;;;-3.78;97.31;102214.83;218230;1286;140249;-83
2024/01/10 13:49:23;;;;;;;125.10;52.30;;;;;;;-3.79;96.89;102205.45;218579;1286;140252;-84
2024/01/10 13:54:23;;;;;;;118.00;52.00;;;;;;;-3.81;96.57;102208.91;218248;1287;141877;-83
2024/01/10 13:59:23;;;;;;;119.20;54.60;;;;;;;-3.83;96.70;102213.39;218816;1287;140232;-83
2024/01/10 14:04:24;;;;;;;136.30;55.40;;;;;;;-3.84;96.34;102206.45;218236;1287;140835;-83
2024/01/10 14:09:27;;;;;;;123.20;51.30;;;;;;;-3.87;96.17;102205.06;218547;1287;140403;-83
2024/01/10 14:14:27;;;;;;;124.50;50.80;;;;;;;-3.89;96.41;102211.54;218229;1287;141097;-82
2024/01/10 14:19:28;;;;;;;137.60;54.50;;;;;;;-3.94;97.03;102206.86;218735;1287;139563;-82
2024/01/10 14:24:28;;;;;;;125.40;52.20;;;;;;;-3.97;97.50;102198.04;218218;1288;140523;-82
2024/01/10 14:29:29;;;;;;;140.50;59.20;;;;;;;-4.00;97.20;102195.38;218792;1286;139882;-83
2024/01/10 14:34:29;;;;;;;123.70;52.60;;;;;;;-4.04;97.30;102191.70;218182;1287;142840;-83
2024/01/10 14:39:30;;;;;;;140.20;58.30;;;;;;;-4.10;97.36;102195.08;218813;1286;140375;-83
2024/01/10 14:44:30;;;;;;;145.40;60.20;;;;;;;-4.12;98.14;102201.54;218362;1286;140843;-83
2024/01/10 14:49:31;;;;;;;131.90;57.80;;;;;;;-4.14;98.34;102212.14;218769;1286;140237;-83
2024/01/10 14:54:31;;;;;;;164.20;62.30;;;;;;;-4.20;97.97;102213.64;218185;1287;140612;-83
2024/01/10 14:59:32;;;;;;;150.40;63.10;;;;;;;-4.23;98.02;102216.92;218788;1287;139927;-82
2024/01/10 15:04:38;;;;;;;135.50;57.20;;;;;;;-4.30;97.80;102214.86;218181;1287;141314;-82
2024/01/10 15:09:38;;;;;;;141.00;62.70;;;;;;;-4.42;98.41;102216.10;218558;1288;140505;-83
2024/01/10 15:14:39;;;;;;;147.20;62.40;;;;;;;-4.45;98.58;102210.82;218055;1287;140532;-82
2024/01/10 15:19:40;;;;;;;169.50;65.70;;;;;;;-4.49;98.30;102205.61;218906;1287;95931;-83
2024/01/10 15:24:42;;;;;;;157.30;63.60;;;;;;;-4.55;98.32;102204.45;218156;1286;140372;-82
2024/01/10 15:29:42;;;;;;;159.40;60.30;;;;;;;-4.69;98.76;102205.10;218816;1287;140569;-82
2024/01/10 15:34:43;;;;;;;143.20;59.50;;;;;;;-4.79;99.06;102204.60;218060;1288;141159;-83
2024/01/10 15:39:46;;;;;;;135.20;58.90;;;;;;;-4.89;99.52;102204.41;218688;1287;139993;-83
2024/01/10 15:44:46;;;;;;;137.70;56.40;;;;;;;-4.95;99.86;102201.05;218394;1286;141677;-83
2024/01/10 15:49:47;;;;;;;157.00;64.10;;;;;;;-5.00;99.94;102194.31;218506;1287;140133;-83
2024/01/10 15:54:50;;;;;;;168.30;70.30;;;;;;;-5.11;99.90;102195.33;218363;1287;141157;-83
2024/01/10 15:59:51;;;;;;;171.10;71.80;;;;;;;-5.15;99.99;102189.81;218424;1287;141502;-84
2024/01/10 16:04:53;;;;;;;161.10;69.70;;;;;;;-5.26;100.00;102186.25;218573;1286;139898;-82
2024/01/10 16:09:54;;;;;;;175.20;68.80;;;;;;;-5.41;100.00;102175.04;218229;1287;141418;-82
2024/01/10 16:14:55;;;;;;;171.50;65.20;;;;;;;-5.54;100.00;102179.69;218774;1287;139924;-82
2024/01/10 16:19:55;;;;;;;174.20;69.20;;;;;;;-5.65;100.00;102173.66;218157;1287;141866;-82
2024/01/10 16:24:56;;;;;;;176.90;72.10;;;;;;;-5.68;100.00;102167.30;218280;1287;139918;-82
2024/01/10 16:29:56;;;;;;;176.40;73.50;;;;;;;-5.73;100.00;102147.70;218056;1287;140963;-82
2024/01/10 16:34:57;;;;;;;185.00;75.00;;;;;;;-5.75;100.00;102148.44;218506;1287;139912;-83
2024/01/10 16:39:58;;;;;;;179.70;75.80;;;;;;;-5.85;100.00;102140.42;217905;1287;141156;-82
2024/01/10 16:44:58;;;;;;;178.10;77.70;;;;;;;-5.90;100.00;102135.64;218566;1286;140019;-82
2024/01/10 16:49:59;;;;;;;180.40;74.20;;;;;;;-5.94;100.00;102128.40;217990;1286;141943;-82
2024/01/10 16:54:59;;;;;;;161.20;72.00;;;;;;;-6.02;100.00;102119.98;218400;1286;140622;-82
2024/01/10 17:00:00;;;;;;;188.30;72.60;;;;;;;-6.10;100.00;102112.20;218191;1287;140658;-82
2024/01/10 17:05:02;;;;;;;186.10;77.30;;;;;;;-6.31;100.00;102122.55;218525;1287;140394;-82
2024/01/10 17:10:03;;;;;;;201.50;86.20;;;;;;;-6.40;100.00;102125.05;218202;1287;141161;-82
2024/01/10 17:15:04;;;;;;;185.70;77.50;;;;;;;-6.39;100.00;102119.46;218603;1287;140767;-82
2024/01/10 17:20:06;;;;;;;182.80;75.30;;;;;;;-6.38;100.00;102114.92;218337;1286;141402;-83
2024/01/10 17:25:08;;;;;;;166.10;67.50;;;;;;;-6.39;100.00;102114.13;218766;1286;139706;-82
2024/01/10 17:30:09;;;;;;;181.70;73.20;;;;;;;-6.44;100.00;102109.07;218212;1287;140537;-82
2024/01/10 17:35:09;;;;;;;146.30;62.40;;;;;;;-6.50;100.00;102109.30;218752;1286;140089;-82
2024/01/10 17:40:10;;;;;;;179.60;70.70;;;;;;;-6.57;100.00;102105.72;217894;1287;141960;-82
2024/01/10 17:45:11;;;;;;;171.20;69.00;;;;;;;-6.59;100.00;102105.71;218626;1286;139888;-82
2024/01/10 17:50:12;;;;;;;172.20;68.50;;;;;;;-6.60;100.00;102096.20;218058;1287;141315;-81
2024/01/10 17:55:12;;;;;;;162.30;65.60;;;;;;;-6.64;100.00;102092.20;218669;1287;140333;-81
2024/01/10 18:00:14;;;;;;;164.60;66.80;;;;;;;-6.72;100.00;102092.41;218172;1286;142326;-82
2024/01/10 18:05:14;;;;;;;177.50;71.90;;;;;;;-6.77;100.00;102099.56;218533;1286;140869;-82
2024/01/10 18:10:15;;;;;;;185.30;73.50;;;;;;;-6.76;100.00;102092.19;218063;1287;140846;-82
2024/01/10 18:15:15;;;;;;;172.40;68.40;;;;;;;-6.77;100.00;102079.23;218751;1286;140350;-81
2024/01/10 18:20:16;;;;;;;169.40;67.80;;;;;;;-6.85;100.00;102084.71;218177;1287;140513;-82
2024/01/10 18:25:16;;;;;;;182.10;71.60;;;;;;;-6.96;100.00;102073.99;218631;1287;140381;-82
2024/01/10 18:30:17;;;;;;;174.80;72.00;;;;;;;-6.98;100.00;102064.88;218262;1286;141189;-81
2024/01/10 18:35:20;;;;;;;185.10;72.30;;;;;;;-7.07;100.00;102067.61;218714;1287;140745;-82
2024/01/10 18:40:21;;;;;;;180.80;74.70;;;;;;;-7.10;100.00;102079.88;217824;1287;142421;-84
2024/01/10 18:45:22;;;;;;;182.90;71.50;;;;;;;-7.11;100.00;102086.34;218463;1287;140510;-84
2024/01/10 18:50:23;;;;;;;195.60;76.00;;;;;;;-7.15;100.00;102085.86;218018;1287;140904;-83
2024/01/10 18:55:23;;;;;;;200.00;79.70;;;;;;;-7.17;100.00;102093.60;218397;1287;142222;-83
2024/01/10 19:00:24;;;;;;;212.00;83.90;;;;;;;-7.17;100.00;102095.73;217863;1288;141268;-83
2024/01/10 19:05:24;;;;;;;216.90;83.50;;;;;;;-7.20;100.00;102092.33;218531;1288;140434;-84
2024/01/10 19:10:25;;;;;;;193.90;77.70;;;;;;;-7.25;100.00;102100.42;217991;1287;141011;-83
2024/01/10 19:15:25;;;;;;;180.30;78.80;;;;;;;-7.31;100.00;102104.77;218568;1287;140497;-84
2024/01/10 19:20:26;;;;;;;191.20;81.10;;;;;;;-7.30;100.00;102093.02;218150;1287;140965;-83
2024/01/10 19:25:26;;;;;;;186.80;76.40;;;;;;;-7.32;100.00;102089.14;218442;1286;139806;-83
2024/01/10 19:30:28;;;;;;;198.60;78.70;;;;;;;-7.38;100.00;102090.38;217910;1287;141573;-83
2024/01/10 19:35:31;;;;;;;197.70;76.00;;;;;;;-7.44;100.00;102099.12;218561;1290;141109;-83
2024/01/10 19:40:32;;;;;;;211.20;81.80;;;;;;;-7.45;100.00;102099.57;218062;1287;140875;-84
2024/01/10 19:45:32;;;;;;;206.60;80.20;;;;;;;-7.41;100.00;102089.46;218254;1287;140158;-83
2024/01/10 19:50:33;;;;;;;215.50;81.10;;;;;;;-7.41;100.00;102092.17;218166;1287;140820;-83
2024/01/10 19:55:37;;;;;;;239.70;89.30;;;;;;;-7.44;100.00;102090.23;218523;1289;139756;-84
2024/01/10 20:00:38;;;;;;;306.70;114.90;;;;;;;-7.47;100.00;102075.11;218115;1287;142386;-84
2024/01/10 20:05:39;;;;;;;291.10;107.40;;;;;;;-7.50;100.00;102068.40;218606;1287;140489;-84
2024/01/10 20:10:39;;;;;;;252.20;98.70;;;;;;;-7.53;100.00;102054.48;217793;1287;141190;-84
2024/01/10 20:15:42;;;;;;;214.00;81.50;;;;;;;-7.63;100.00;102056.79;218569;1286;140004;-86
2024/01/10 20:20:46;;;;;;;210.90;79.60;;;;;;;-7.75;100.00;102054.83;217925;1288;141509;-82
2024/01/10 20:25:47;;;;;;;207.60;86.20;;;;;;;-7.80;100.00;102049.27;218461;1288;96083;-84
2024/01/10 20:30:51;;;;;;;226.40;86.00;;;;;;;-7.85;100.00;102054.77;217784;1287;141543;-84
2024/01/10 20:35:52;;;;;;;212.30;85.80;;;;;;;-7.87;100.00;102067.58;218475;1288;141055;-84
2024/01/10 20:40:52;;;;;;;207.40;83.10;;;;;;;-7.84;100.00;102071.23;217962;1287;140578;-84
2024/01/10 20:45:52;;;;;;;193.00;77.40;;;;;;;-7.80;100.00;102062.48;218448;1287;141377;-83
2024/01/10 20:50:54;;;;;;;204.70;80.00;;;;;;;-7.79;100.00;102061.42;217934;1288;140981;-83
2024/01/10 20:55:55;;;;;;;188.10;73.90;;;;;;;-7.79;100.00;102045.02;218681;1286;96269;-83
2024/01/10 21:00:55;;;;;;;190.60;69.00;;;;;;;-7.79;100.00;102034.59;217833;1288;141717;-83
2024/01/10 21:05:56;;;;;;;188.00;73.20;;;;;;;-7.83;100.00;102038.49;218565;1287;139879;-83
2024/01/10 21:10:56;;;;;;;178.20;74.50;;;;;;;-7.81;100.00;102051.27;217917;1288;140971;-83
2024/01/10 21:15:57;;;;;;;184.40;73.10;;;;;;;-7.78;100.00;102052.64;218410;1288;140828;-83
2024/01/10 21:20:59;;;;;;;175.60;70.60;;;;;;;-7.76;100.00;102058.30;218096;1288;141633;-82
2024/01/10 21:26:00;;;;;;;213.50;76.70;;;;;;;-7.74;100.00;102039.95;218675;1287;97575;-83
2024/01/10 21:31:01;;;;;;;183.70;73.50;;;;;;;-7.73;100.00;102025.55;217965;1288;140349;-81
2024/01/10 21:36:02;;;;;;;176.70;70.00;;;;;;;-7.71;100.00;102015.84;218508;1288;140409;-81
2024/01/10 21:41:03;;;;;;;152.30;62.30;;;;;;;-7.71;100.00;102011.24;218065;1288;141536;-82
2024/01/10 21:46:03;;;;;;;168.60;62.90;;;;;;;-7.69;100.00;102005.11;218401;1287;281283;-82